首页
METAR-TAF:

METAR-TAF

机场 :

Golden Triangle Regional Airport

哥伦布/ West Point / 斯塔克維爾, 密西西比州, 美国

纬度: 33-27N, 经度: 088-35W, 海拔: 80米

当前天气观测

该预报发布于1小时和2分钟前的08:56 UTC
风速7节,风向北转西北
温度 5°C
湿度 70%
气压 1025 hPa
能見度: 16.1公里
天空无云

METAR: KGTR 150856Z AUTO 34007KT 10SM CLR 05/00 A3028 RMK AO2 SLP264 T00500000 56003

时间: 03:58 (09:58 UTC)

预报

该预报发布于4小时和24分钟前的05:34 UTC
预报有效从15日的 06点(UTC)到 16日的 06点(UTC)
风速5节,风向
能見度: 10公里
多云层高于12000英尺
从 15日的 1600点(UTC)
风速11节,风向,有时为19节阵风
能見度: 10公里
天空无云
从 16日的 0000点(UTC)
风速5节,风向
能見度: 10公里
天空无云

TAF: KGTR 150534Z 1506/1606 35005KT P6SM BKN120 FM151600 36011G19KT P6SM SKC FM160000 35005KT P6SM SKC

超过4000个机场的气象观测和天气预报(METAR&TAF报告)。

可查询的气象台以黄色和红色小点在地图上表示。

将鼠标移到小点上方,可查看气象台名称。

然后点击查看天气观测和预报。

如需切换地图:点击带黑十字的绿色按钮放大地图;点击带横线的绿色按钮缩小地图;或者点击绿色箭头查看邻近地区的地图。


METAR-TAF: